LRBC/BCM METAR and TAF weather

Enter ICAO airport designator
Station Type Date Time Source
LRBC METAR 2019/08/22 05:00 UTC NOAA

LRBC 220500Z 35015KT 9999 FEW023 21/17 Q1024


Station Type Date Time Source
LRBC Decoded METAR 2019/08/22 05:00 UTC NOAA

Station name not available
Aug 22, 2019 - 01:00 AM EDT / 2019.08.22 0500 UTC
Wind: from the N (350 degrees) at 17 MPH (15 KT):0
Visibility: greater than 7 mile(s):0
Sky conditions: mostly clear
Temperature: 69 F (21 C)
Dew Point: 62 F (17 C)
Relative Humidity: 77%
Pressure (altimeter): 30.24 in. Hg (1024 hPa)
ob: LRBC 220500Z 35015KT 9999 FEW023 21/17 Q1024
cycle: 5

Station Type Date Time Source
LRBC TAF 2010/08/31 20:30 UTC NOAA

TAF LRBC 312030Z 3121/0203 CNL

Example: see airport list